Weather at Stony Plain (Westview Health Centre) Heliport

Public forecast

Using degrees Celsius for public forecast. Weather courtesy of forecast.io.

Closest aviation weather report (METAR) to Stony Plain (Westview Health Centre) Heliport

Closest report is Edmonton / Villeneuve Airport, 9.0 nm (16.6 km) NNE. Retrieved 2020/12/04 22:00 UTC (14 minutes ago):

CZVL 042200Z AUTO 23004KT 9SM CLR 06/M02 A3015 RMK SLP243

Closest aviation forecast (TAF) to Stony Plain (Westview Health Centre) Heliport

Closest forecast is Edmonton / Villeneuve Airport, 9.0 nm (16.6 km) NNE. Retrieved 2020/12/04 18:00 UTC (4 hours ago):

TAF CZVL 041738Z 0418/0506 27008KT P6SM SCT150 BECMG 0422/0424 18006KT RMK FCST BASED ON AUTO OBS NXT FCST BY 050000Z